Paula Ruble — WDF2276 — position and weather

sailwx.info

Track history (hours):
 
Tides and Currents Weather Stations Pressure Air Temp Water Temp Dewpoint Dewpoint Depression Visibility Wind Speed Wind Dir Waves Ship Positions

Paula Ruble

Owner: Crounse Corporation, Maysville, KY. More information available from US FCC via Universal Licensing System and Coast Guard Vessel Documentation Center.

Last reported at 2015-Apr-07 07:12 UTC. Time now 2015-Apr-28 16:02 UTC.
Position N 38°54' W 084°50'.
Warning: this ship's position is 21 days out of date.

Length 42 m.

Type: Tow > 200 m length. MMSI: 367426860.

Date/timePositionNaut miles runAvg speedWind from/ knotsBaromVisibWave heightAir tempDewpointWater temp
2015-Apr-07 07:12N 38°54' W 084°50'5 6.0
2015-Apr-07 06:23N 38°59' W 084°50'6 7.1
2015-Apr-07 05:32N 39°05' W 084°52'7 7.6
2015-Apr-07 04:33N 39°08' W 084°43'7 7.1
2015-Apr-07 03:32N 39°05' W 084°35'2 1.6
2015-Apr-07 02:32N 39°06' W 084°33'4 4.0
2015-Apr-07 01:30N 39°07' W 084°29'6 6.3
2015-Apr-07 00:32N 39°03' W 084°23'7 7.0
2015-Apr-06 23:33N 38°57' W 084°17'8 7.9
2015-Apr-06 22:32N 38°50' W 084°14'4 3.8
2015-Apr-06 21:32N 38°48' W 084°10'6 6.1
2015-Apr-06 20:33N 38°46' W 084°03'13 1.3
2015-Apr-06 10:31N 38°41' W 083°47'5 3.5
2015-Apr-06 09:05N 38°45' W 083°51'2 3.4
2015-Apr-06 08:27N 38°46' W 083°54'7 3.4
2015-Apr-06 06:33N 38°46' W 084°02'3 3.5
2015-Apr-06 05:33N 38°47' W 084°07'3 3.0
2015-Apr-06 04:32N 38°48' W 084°10'3 2.6
2015-Apr-06 03:31N 38°49' W 084°13'3 3.4
2015-Apr-06 02:32N 38°52' W 084°14'1 0.6
2015-Apr-06 01:31N 38°53' W 084°14'2 2.3
2015-Apr-06 00:32N 38°55' W 084°15'3 3.0
2015-Apr-05 23:32N 38°57' W 084°17'3 3.0
2015-Apr-05 22:32N 39°00' W 084°18'3 3.0
2015-Apr-05 21:33N 39°02' W 084°21'3 3.0
2015-Apr-05 20:32N 39°03' W 084°25'3 2.5
2015-Apr-05 19:33N 39°05' W 084°26'2 2.4
2015-Apr-05 18:33N 39°07' W 084°28'3 2.7
2015-Apr-05 17:32N 39°06' W 084°31'2 2.0
2015-Apr-05 16:32N 39°06' W 084°33'2 1.5
2015-Apr-05 15:33N 39°05' W 084°35'2 2.4
2015-Apr-05 14:32N 39°05' W 084°38'2 2.2
2015-Apr-05 13:32N 39°06' W 084°40'2 1.9
2015-Apr-05 12:32N 39°07' W 084°42'3 2.5
2015-Apr-05 11:32N 39°09' W 084°45'3 2.6
2015-Apr-05 10:32N 39°07' W 084°47'2 2.1
2015-Apr-05 09:32N 39°06' W 084°50'2 1.9
2015-Apr-05 08:27N 39°05' W 084°51'2 2.0
2015-Apr-05 07:29N 39°04' W 084°53'7 2.3
2015-Apr-05 04:25N 38°57' W 084°51'  
Track history (hours):
 
Tides and Currents Weather Stations Pressure Air Temp Water Temp Dewpoint Dewpoint Depression Visibility Wind Speed Wind Dir Waves Ship Positions

Paula Ruble

Owner: Crounse Corporation, Maysville, KY. More information available from US FCC via Universal Licensing System and Coast Guard Vessel Documentation Center.

Last reported at 2015-Apr-07 07:12 UTC. Time now 2015-Apr-28 16:02 UTC.
Position N 38°54' W 084°50'.
Warning: this ship's position is 21 days out of date.

Length 42 m.

Type: Tow > 200 m length. MMSI: 367426860.

Date/timePositionNaut miles runAvg speedWind from/ knotsBaromVisibWave heightAir tempDewpointWater temp
2015-Apr-07 07:12N 38°54' W 084°50'5 6.0
2015-Apr-07 06:23N 38°59' W 084°50'6 7.1
2015-Apr-07 05:32N 39°05' W 084°52'7 7.6
2015-Apr-07 04:33N 39°08' W 084°43'7 7.1
2015-Apr-07 03:32N 39°05' W 084°35'2 1.6
2015-Apr-07 02:32N 39°06' W 084°33'4 4.0
2015-Apr-07 01:30N 39°07' W 084°29'6 6.3
2015-Apr-07 00:32N 39°03' W 084°23'7 7.0
2015-Apr-06 23:33N 38°57' W 084°17'8 7.9
2015-Apr-06 22:32N 38°50' W 084°14'4 3.8
2015-Apr-06 21:32N 38°48' W 084°10'6 6.1
2015-Apr-06 20:33N 38°46' W 084°03'13 1.3
2015-Apr-06 10:31N 38°41' W 083°47'5 3.5
2015-Apr-06 09:05N 38°45' W 083°51'2 3.4
2015-Apr-06 08:27N 38°46' W 083°54'7 3.4
2015-Apr-06 06:33N 38°46' W 084°02'3 3.5
2015-Apr-06 05:33N 38°47' W 084°07'3 3.0
2015-Apr-06 04:32N 38°48' W 084°10'3 2.6
2015-Apr-06 03:31N 38°49' W 084°13'3 3.4
2015-Apr-06 02:32N 38°52' W 084°14'1 0.6
2015-Apr-06 01:31N 38°53' W 084°14'2 2.3
2015-Apr-06 00:32N 38°55' W 084°15'3 3.0
2015-Apr-05 23:32N 38°57' W 084°17'3 3.0
2015-Apr-05 22:32N 39°00' W 084°18'3 3.0
2015-Apr-05 21:33N 39°02' W 084°21'3 3.0
2015-Apr-05 20:32N 39°03' W 084°25'3 2.5
2015-Apr-05 19:33N 39°05' W 084°26'2 2.4
2015-Apr-05 18:33N 39°07' W 084°28'3 2.7
2015-Apr-05 17:32N 39°06' W 084°31'2 2.0
2015-Apr-05 16:32N 39°06' W 084°33'2 1.5
2015-Apr-05 15:33N 39°05' W 084°35'2 2.4
2015-Apr-05 14:32N 39°05' W 084°38'2 2.2
2015-Apr-05 13:32N 39°06' W 084°40'2 1.9
2015-Apr-05 12:32N 39°07' W 084°42'3 2.5
2015-Apr-05 11:32N 39°09' W 084°45'3 2.6
2015-Apr-05 10:32N 39°07' W 084°47'2 2.1
2015-Apr-05 09:32N 39°06' W 084°50'2 1.9
2015-Apr-05 08:27N 39°05' W 084°51'2 2.0
2015-Apr-05 07:29N 39°04' W 084°53'7 2.3
2015-Apr-05 04:25N 38°57' W 084°51'  

Dump ship's entire track history